Time;durP1;ratioP1;P1;durP2;ratioP2;P2;SDS_P1;SDS_P2;PMS_P1;PMS_P2;Temp;Humidity;BMP_temperature;BMP_pressure;BME280_temperature;BME280_humidity;BME280_pressure;Samples;Min_cycle;Max_cycle;Signal;HPM_P1;HPM_P2
2023/08/20 00:00:15;;;;;;;;;;;;;;;26.52;51.35;99684.06;2492055;27;19937;-74
2023/08/20 00:00:25;;;;;;;;;;;;;;;26.53;51.60;99677.69;356065;27;792;-75
2023/08/20 00:00:35;;;;;;;;;;;;;;;26.53;51.77;99680.38;354017;27;1497;-74
2023/08/20 00:00:46;;;;;;;;;;;;;;;26.53;51.45;99677.69;351765;28;1421;-74
2023/08/20 00:00:57;;;;;;;;;;;;;;;26.53;51.61;99683.06;351421;28;1579;-75
2023/08/20 00:01:08;;;;;;;;;;;;;;;26.52;51.74;99681.41;349482;28;1262;-75
2023/08/20 00:01:20;;;;;;;;;;;;;;;26.51;51.70;99675.19;348937;28;1224;-74
2023/08/20 00:01:30;;;;;;;;;;;;;;;26.52;51.56;99676.03;348758;28;1935;-74
2023/08/20 00:01:40;;;;;;;;;;;;;;;26.53;51.46;99677.69;348949;28;1444;-74
2023/08/20 00:01:52;;;;;;;;;;;;;;;26.51;51.60;99677.88;349599;28;1566;-74
2023/08/20 00:02:02;;;;;;;;;;;;;;;26.52;51.77;99681.41;350322;28;863;-74
2023/08/20 00:02:12;;;;;;;;;;;;;;;26.51;51.53;99680.56;351401;28;879;-74
2023/08/20 00:02:23;;;;;;;;;;;;;;;26.51;51.62;99685.91;351414;28;1209;-74
2023/08/20 00:02:33;;;;;;;;;;;;;;;26.51;51.82;99679.72;347988;28;1492;-75
2023/08/20 00:02:43;;;;;;;;;;;;;;;26.50;51.61;99681.56;348896;28;1112;-75
2023/08/20 00:03:03;;;;;;;;;;;;;;;26.50;51.67;99681.56;350320;28;1318;-74
2023/08/20 00:03:14;;;;;;;;;;;;;;;26.50;51.55;99688.75;348549;28;1020;-74
2023/08/20 00:03:24;;;;;;;;;;;;;;;26.49;51.90;99679.03;347821;28;1095;-74
2023/08/20 00:03:34;;;;;;;;;;;;;;;26.48;51.65;99678.19;348942;28;1225;-74
2023/08/20 00:03:46;;;;;;;;;;;;;;;26.48;51.85;99678.19;348802;28;1239;-74
2023/08/20 00:03:56;;;;;;;;;;;;;;;26.47;51.89;99678.34;350178;28;804;-74
2023/08/20 00:04:07;;;;;;;;;;;;;;;26.46;51.93;99677.50;347168;28;1820;-74
2023/08/20 00:04:17;;;;;;;;;;;;;;;26.46;51.79;99682.03;348817;28;1123;-74
2023/08/20 00:04:27;;;;;;;;;;;;;;;26.45;51.83;99683.88;350159;28;1335;-74
2023/08/20 00:04:37;;;;;;;;;;;;;;;26.44;51.86;99679.53;348189;28;1505;-74
2023/08/20 00:04:48;;;;;;;;;;;;;;;26.44;51.62;99682.19;347310;28;1425;-74
2023/08/20 00:04:58;;;;;;;;;;;;;;;26.43;51.88;99680.53;350207;28;1322;-74
2023/08/20 00:05:09;;;;;;;;;;;;;;;26.42;51.95;99676.19;347484;28;1194;-74
2023/08/20 00:05:19;;;;;;;;;;;;;;;26.42;52.02;99678.03;346129;28;1207;-74
2023/08/20 00:05:30;;;;;;;;;;;;;;;26.41;51.95;99681.72;347572;28;816;-75
2023/08/20 00:05:40;;;;;;;;;;;;;;;26.41;51.82;99679.88;346031;28;1239;-74
2023/08/20 00:05:51;;;;;;;;;;;;;;;26.40;51.72;99682.72;348730;28;1207;-74
2023/08/20 00:06:03;;;;;;;;;;;;;;;26.40;51.87;99680.88;347508;28;910;-74
2023/08/20 00:06:14;;;;;;;;;;;;;;;26.39;51.95;99681.03;343307;28;1233;-73
2023/08/20 00:06:25;;;;;;;;;;;;;;;26.38;51.91;99677.50;344584;28;1383;-73
2023/08/20 00:06:36;;;;;;;;;;;;;;;26.37;51.92;99677.66;344687;28;1321;-75
2023/08/20 00:06:46;;;;;;;;;;;;;;;26.36;52.13;99676.00;343536;28;1171;-74
2023/08/20 00:06:56;;;;;;;;;;;;;;;26.34;52.10;99678.00;343327;28;1081;-74
2023/08/20 00:07:07;;;;;;;;;;;;;;;26.33;52.23;99676.31;344046;28;944;-75
2023/08/20 00:07:18;;;;;;;;;;;;;;;26.33;52.10;99679.00;344892;28;926;-75
2023/08/20 00:07:28;;;;;;;;;;;;;;;26.32;52.24;99680.00;344758;28;840;-74
2023/08/20 00:07:39;;;;;;;;;;;;;;;26.32;52.11;99680.84;346350;28;1489;-75
2023/08/20 00:07:49;;;;;;;;;;;;;;;26.33;52.31;99681.69;344371;28;1462;-75
2023/08/20 00:07:59;;;;;;;;;;;;;;;26.34;52.62;99678.00;344088;28;2914;-74
2023/08/20 00:08:11;;;;;;;;;;;;;;;26.34;52.21;99678.00;341102;28;4609;-73
2023/08/20 00:08:21;;;;;;;;;;;;;;;26.33;52.38;99679.84;342503;28;4749;-73
2023/08/20 00:08:31;;;;;;;;;;;;;;;26.32;52.30;99680.00;343582;28;962;-73
2023/08/20 00:08:41;;;;;;;;;;;;;;;26.33;52.22;99676.31;342723;28;5405;-73
2023/08/20 00:08:52;;;;;;;;;;;;;;;26.32;52.18;99675.47;338549;29;1613;-73
2023/08/20 00:09:03;;;;;;;;;;;;;;;26.34;52.11;99675.31;339383;29;905;-73
2023/08/20 00:09:13;;;;;;;;;;;;;;;26.34;52.08;99678.00;338139;29;805;-73
2023/08/20 00:09:26;;;;;;;;;;;;;;;26.34;52.03;99675.31;336592;29;1406;-73
2023/08/20 00:09:37;;;;;;;;;;;;;;;26.32;52.32;99675.47;335109;29;919;-74
2023/08/20 00:09:47;;;;;;;;;;;;;;;26.32;51.99;99678.16;336048;29;1114;-75
2023/08/20 00:09:58;;;;;;;;;;;;;;;26.32;52.17;99680.00;337018;29;1071;-74
2023/08/20 00:10:09;;;;;;;;;;;;;;;26.30;52.03;99673.91;335298;29;1484;-74
2023/08/20 00:10:19;;;;;;;;;;;;;;;26.32;51.99;99674.63;334114;29;1914;-74
2023/08/20 00:10:30;;;;;;;;;;;;;;;26.33;51.92;99676.31;330426;29;1454;-74
2023/08/20 00:10:40;;;;;;;;;;;;;;;26.33;52.34;99681.69;328184;30;1794;-74
2023/08/20 00:10:50;;;;;;;;;;;;;;;26.33;52.38;99684.38;327886;29;2106;-74
2023/08/20 00:11:00;;;;;;;;;;;;;;;26.34;52.22;99683.38;334284;29;929;-74
2023/08/20 00:11:11;;;;;;;;;;;;;;;26.33;52.08;99676.31;329191;29;2255;-74
2023/08/20 00:11:21;;;;;;;;;;;;;;;26.34;52.09;99678.00;328295;30;1709;-74
2023/08/20 00:11:31;;;;;;;;;;;;;;;26.33;52.46;99676.31;327854;30;1221;-74
2023/08/20 00:11:42;;;;;;;;;;;;;;;26.32;52.55;99671.94;327124;30;1416;-74
2023/08/20 00:11:52;;;;;;;;;;;;;;;26.31;52.24;99676.47;325848;30;1285;-74
2023/08/20 00:12:03;;;;;;;;;;;;;;;26.31;52.14;99673.78;323275;30;923;-74
2023/08/20 00:12:13;;;;;;;;;;;;;;;26.31;52.31;99676.47;326287;30;1832;-74
2023/08/20 00:12:24;;;;;;;;;;;;;;;26.31;52.25;99672.94;328260;30;2097;-74
2023/08/20 00:12:34;;;;;;;;;;;;;;;26.33;52.28;99679.00;328844;29;2151;-74
2023/08/20 00:12:44;;;;;;;;;;;;;;;26.33;52.36;99671.78;331977;29;885;-74
2023/08/20 00:12:55;;;;;;;;;;;;;;;26.34;52.24;99675.31;327412;30;2265;-74
2023/08/20 00:13:05;;;;;;;;;;;;;;;26.34;52.30;99669.94;323541;30;2610;-74
2023/08/20 00:13:15;;;;;;;;;;;;;;;26.34;52.36;99673.47;324297;30;1410;-74
2023/08/20 00:13:25;;;;;;;;;;;;;;;26.35;52.13;99674.31;324651;30;2762;-74
2023/08/20 00:13:36;;;;;;;;;;;;;;;26.34;52.33;99676.16;323986;30;1797;-74
2023/08/20 00:13:46;;;;;;;;;;;;;;;26.34;52.39;99673.47;322010;30;1038;-74
2023/08/20 00:13:56;;;;;;;;;;;;;;;26.34;52.38;99681.53;322978;30;1569;-74
2023/08/20 00:14:06;;;;;;;;;;;;;;;26.36;52.17;99676.00;323784;30;2251;-74
2023/08/20 00:14:17;;;;;;;;;;;;;;;26.35;52.16;99674.31;323298;30;820;-74
2023/08/20 00:14:45;;;;;;;;;;;;;;;26.36;52.19;99682.19;324859;30;2789;-74
2023/08/20 00:15:04;;;;;;;;;;;;;;;26.34;52.06;99678.00;321147;30;3173;-74
2023/08/20 00:15:15;;;;;;;;;;;;;;;26.34;52.50;99678.00;318579;31;1284;-74
2023/08/20 00:15:28;;;;;;;;;;;;;;;26.33;52.01;99671.78;321114;30;3436;-74
2023/08/20 00:15:38;;;;;;;;;;;;;;;26.33;52.22;99677.16;319905;30;3425;-74
2023/08/20 00:15:48;;;;;;;;;;;;;;;26.33;52.60;99674.47;318443;31;1611;-74
2023/08/20 00:15:59;;;;;;;;;;;;;;;26.31;52.31;99671.09;318605;31;905;-75
2023/08/20 00:16:09;;;;;;;;;;;;;;;26.31;52.44;99673.78;316111;31;2300;-74
2023/08/20 00:16:20;;;;;;;;;;;;;;;26.30;52.23;99673.91;316057;30;3069;-74
2023/08/20 00:16:30;;;;;;;;;;;;;;;26.29;52.41;99669.56;317458;31;826;-74
2023/08/20 00:16:40;;;;;;;;;;;;;;;26.28;52.44;99668.72;314959;31;3932;-74
2023/08/20 00:16:51;;;;;;;;;;;;;;;26.28;52.32;99668.72;313595;31;3848;-74
2023/08/20 00:17:01;;;;;;;;;;;;;;;26.29;52.41;99674.91;315448;31;3724;-74
2023/08/20 00:17:12;;;;;;;;;;;;;;;26.27;52.45;99661.66;311425;31;4868;-74
2023/08/20 00:17:24;;;;;;;;;;;;;;;26.27;52.56;99666.19;309267;31;5127;-74
2023/08/20 00:17:34;;;;;;;;;;;;;;;26.26;52.53;99669.88;306761;31;4722;-75
2023/08/20 00:17:45;;;;;;;;;;;;;;;26.24;52.43;99671.88;308784;31;5395;-73
2023/08/20 00:17:55;;;;;;;;;;;;;;;26.23;52.64;99664.84;307174;31;4590;-73
2023/08/20 00:18:06;;;;;;;;;;;;;;;26.24;52.61;99677.25;306407;31;3398;-73
2023/08/20 00:18:16;;;;;;;;;;;;;;;26.25;52.73;99668.19;310703;31;799;-73
2023/08/20 00:18:27;;;;;;;;;;;;;;;26.24;52.55;99661.97;309464;31;3521;-73
2023/08/20 00:18:38;;;;;;;;;;;;;;;26.24;52.79;99661.16;308328;31;4392;-73
2023/08/20 00:18:48;;;;;;;;;;;;;;;26.24;52.69;99663.81;308529;32;1182;-73
2023/08/20 00:18:59;;;;;;;;;;;;;;;26.24;52.61;99666.50;303926;32;5915;-74
2023/08/20 00:19:09;;;;;;;;;;;;;;;26.24;52.63;99667.34;304955;32;6468;-74
2023/08/20 00:19:19;;;;;;;;;;;;;;;26.24;52.79;99666.50;305301;32;6335;-74
2023/08/20 00:19:30;;;;;;;;;;;;;;;26.23;52.71;99671.03;304231;32;951;-74
2023/08/20 00:19:40;;;;;;;;;;;;;;;26.23;52.54;99664.84;302656;32;5552;-74
2023/08/20 00:19:50;;;;;;;;;;;;;;;26.22;52.53;99663.16;302657;32;6500;-74
2023/08/20 00:20:01;;;;;;;;;;;;;;;26.22;52.58;99663.16;303137;32;1499;-74
2023/08/20 00:20:15;;;;;;;;;;;;;;;26.22;52.88;99665.84;299577;32;6638;-75
2023/08/20 00:20:25;;;;;;;;;;;;;;;26.22;52.81;99663.16;300543;32;4882;-75
2023/08/20 00:20:35;;;;;;;;;;;;;;;26.22;52.67;99668.50;300870;32;5243;-75
2023/08/20 00:20:46;;;;;;;;;;;;;;;26.19;52.74;99658.94;303211;32;1348;-75
2023/08/20 00:20:56;;;;;;;;;;;;;;;26.19;52.79;99670.50;300667;32;6591;-75
2023/08/20 00:21:07;;;;;;;;;;;;;;;26.19;52.62;99673.19;298073;32;7946;-74
2023/08/20 00:21:17;;;;;;;;;;;;;;;26.19;52.70;99670.50;299139;33;834;-74
2023/08/20 00:21:28;;;;;;;;;;;;;;;26.20;52.79;99671.34;292629;33;8992;-74
2023/08/20 00:21:44;;;;;;;;;;;;;;;26.20;52.76;99666.00;292449;33;8563;-74
2023/08/20 00:21:54;;;;;;;;;;;;;;;26.21;52.99;99669.50;294009;33;7961;-74
2023/08/20 00:22:04;;;;;;;;;;;;;;;26.22;52.67;99663.16;291624;33;8577;-74
2023/08/20 00:22:15;;;;;;;;;;;;;;;26.22;52.84;99673.88;290235;34;1481;-74
2023/08/20 00:24:38;;;;;;;;;;;;;;;26.21;53.33;99666.84;2491024;27;20370;-75
2023/08/20 00:24:48;;;;;;;;;;;;;;;26.22;53.07;99665.84;356055;27;891;-75
2023/08/20 00:24:59;;;;;;;;;;;;;;;26.22;53.20;99668.50;354447;27;1121;-75
2023/08/20 00:25:09;;;;;;;;;;;;;;;26.20;53.24;99671.34;353079;28;859;-75
2023/08/20 00:25:19;;;;;;;;;;;;;;;26.21;53.45;99661.47;351778;28;1272;-75
2023/08/20 00:25:30;;;;;;;;;;;;;;;26.21;53.43;99677.56;350246;28;1111;-75
2023/08/20 00:25:40;;;;;;;;;;;;;;;26.21;53.38;99665.00;349116;28;1086;-75
2023/08/20 00:25:51;;;;;;;;;;;;;;;26.22;53.04;99663.16;348939;28;800;-75
2023/08/20 00:26:02;;;;;;;;;;;;;;;26.21;53.26;99672.19;349511;28;872;-75
2023/08/20 00:26:12;;;;;;;;;;;;;;;26.21;53.27;99670.34;348609;28;1267;-75
2023/08/20 00:26:23;;;;;;;;;;;;;;;26.22;53.33;99673.88;348278;28;2705;-75
2023/08/20 00:26:33;;;;;;;;;;;;;;;26.22;53.24;99663.16;348113;28;4543;-75
2023/08/20 00:26:43;;;;;;;;;;;;;;;26.22;53.25;99674.72;346630;28;4774;-75
2023/08/20 00:26:53;;;;;;;;;;;;;;;26.22;53.60;99671.19;348819;28;1464;-74
2023/08/20 00:27:04;;;;;;;;;;;;;;;26.21;53.32;99672.19;348312;28;4970;-74
2023/08/20 00:27:14;;;;;;;;;;;;;;;26.21;53.20;99665.00;348092;28;946;-74
2023/08/20 00:27:24;;;;;;;;;;;;;;;26.21;53.48;99661.47;347512;28;1133;-74
2023/08/20 00:27:35;;;;;;;;;;;;;;;26.21;53.55;99661.47;344764;28;1320;-75
2023/08/20 00:27:45;;;;;;;;;;;;;;;26.19;53.43;99662.47;344756;28;1417;-75
2023/08/20 00:27:55;;;;;;;;;;;;;;;26.19;53.24;99667.84;345826;28;1541;-75
2023/08/20 00:28:05;;;;;;;;;;;;;;;26.19;53.26;99670.50;344774;28;1747;-74
2023/08/20 00:28:15;;;;;;;;;;;;;;;26.18;53.50;99668.84;344732;28;1070;-74
2023/08/20 00:28:26;;;;;;;;;;;;;;;26.19;53.50;99665.16;347485;28;1266;-74
2023/08/20 00:28:38;;;;;;;;;;;;;;;26.18;53.61;99666.16;347078;28;1578;-74
2023/08/20 00:28:49;;;;;;;;;;;;;;;26.21;53.34;99658.78;346744;28;821;-74
2023/08/20 00:28:59;;;;;;;;;;;;;;;26.19;53.61;99658.94;344875;28;1244;-74
2023/08/20 00:29:09;;;;;;;;;;;;;;;26.19;53.51;99659.78;347064;28;1201;-73
2023/08/20 00:29:19;;;;;;;;;;;;;;;26.17;53.31;99667.16;347560;28;860;-73
2023/08/20 00:29:29;;;;;;;;;;;;;;;26.16;53.28;99664.63;346128;28;1173;-73
2023/08/20 00:29:40;;;;;;;;;;;;;;;26.15;53.28;99666.47;348994;28;882;-73
2023/08/20 00:29:50;;;;;;;;;;;;;;;26.15;53.19;99665.63;350195;28;1125;-73
2023/08/20 00:30:00;;;;;;;;;;;;;;;26.14;53.41;99666.63;348883;28;1099;-73
2023/08/20 00:30:10;;;;;;;;;;;;;;;26.12;53.55;99669.47;348893;28;894;-73
2023/08/20 00:30:21;;;;;;;;;;;;;;;26.08;53.61;99667.28;346746;28;1286;-73
2023/08/20 00:30:31;;;;;;;;;;;;;;;26.05;53.83;99664.91;343965;28;1282;-74
2023/08/20 00:30:41;;;;;;;;;;;;;;;26.02;53.83;99668.75;344893;28;766;-74
2023/08/20 00:30:51;;;;;;;;;;;;;;;26.01;54.16;99671.59;342073;28;1438;-74
2023/08/20 00:31:02;;;;;;;;;;;;;;;25.98;53.91;99667.41;341360;28;1049;-74
2023/08/20 00:31:12;;;;;;;;;;;;;;;25.96;54.07;99664.06;340825;28;1173;-74
2023/08/20 00:31:22;;;;;;;;;;;;;;;25.96;54.03;99669.41;343569;28;1069;-74
2023/08/20 00:31:33;;;;;;;;;;;;;;;25.95;54.14;99667.75;342904;28;1136;-74
2023/08/20 00:31:43;;;;;;;;;;;;;;;25.94;54.13;99666.06;343478;28;848;-74
2023/08/20 00:31:53;;;;;;;;;;;;;;;25.94;54.38;99665.22;344882;28;773;-74
2023/08/20 00:32:03;;;;;;;;;;;;;;;25.94;54.33;99671.41;342384;28;1434;-74
2023/08/20 00:32:14;;;;;;;;;;;;;;;25.94;54.37;99666.06;341884;28;893;-74
2023/08/20 00:32:24;;;;;;;;;;;;;;;25.93;54.43;99669.75;339413;29;1293;-74
2023/08/20 00:32:35;;;;;;;;;;;;;;;25.91;54.53;99666.38;339312;29;1301;-74
2023/08/20 00:32:45;;;;;;;;;;;;;;;25.91;54.41;99665.53;340143;28;1581;-74
2023/08/20 00:32:55;;;;;;;;;;;;;;;25.91;54.43;99673.56;340809;29;853;-74
2023/08/20 00:33:06;;;;;;;;;;;;;;;25.90;54.62;99667.38;341493;28;1197;-74
2023/08/20 00:33:16;;;;;;;;;;;;;;;25.90;54.59;99663.84;340665;29;1635;-74
2023/08/20 00:33:26;;;;;;;;;;;;;;;25.90;54.36;99678.09;339218;29;1910;-74
2023/08/20 00:33:37;;;;;;;;;;;;;;;25.90;54.58;99664.69;339448;29;1343;-74
2023/08/20 00:33:47;;;;;;;;;;;;;;;25.91;54.39;99673.56;340024;29;1385;-74
2023/08/20 00:33:58;;;;;;;;;;;;;;;25.90;54.43;99667.38;340934;28;860;-74
2023/08/20 00:34:08;;;;;;;;;;;;;;;25.91;54.37;99665.53;339391;29;816;-74
2023/08/20 00:34:18;;;;;;;;;;;;;;;25.89;54.43;99668.38;336818;29;1060;-74
2023/08/20 00:34:28;;;;;;;;;;;;;;;25.89;54.50;99671.06;336596;29;1377;-74
2023/08/20 00:34:40;;;;;;;;;;;;;;;25.89;54.36;99671.06;336802;29;1230;-74
2023/08/20 00:34:50;;;;;;;;;;;;;;;25.77;54.86;99670.47;337010;29;2633;-74
2023/08/20 00:35:00;;;;;;;;;;;;;;;25.76;54.77;99673.31;338216;28;1828;-74
2023/08/20 00:35:11;;;;;;;;;;;;;;;25.76;55.02;99668.78;336688;29;1233;-74
2023/08/20 00:35:21;;;;;;;;;;;;;;;25.76;54.75;99666.13;336563;29;1995;-73
2023/08/20 00:35:32;;;;;;;;;;;;;;;25.78;54.96;99668.63;335231;29;2349;-73
2023/08/20 00:35:42;;;;;;;;;;;;;;;25.79;54.89;99673.00;333018;29;4122;-73
2023/08/20 00:35:52;;;;;;;;;;;;;;;25.79;54.58;99664.97;332597;29;4533;-73
2023/08/20 00:36:02;;;;;;;;;;;;;;;25.80;54.87;99672.84;335405;29;3017;-73
2023/08/20 00:36:13;;;;;;;;;;;;;;;25.81;54.96;99668.31;335398;29;4797;-73
2023/08/20 00:36:23;;;;;;;;;;;;;;;25.83;54.94;99669.84;335612;29;1413;-73
2023/08/20 00:36:33;;;;;;;;;;;;;;;25.83;54.77;99663.63;335333;29;1963;-73
2023/08/20 00:36:43;;;;;;;;;;;;;;;25.84;54.90;99670.69;335409;29;2058;-73
2023/08/20 00:36:53;;;;;;;;;;;;;;;25.83;54.75;99667.16;335617;29;936;-73
2023/08/20 00:37:04;;;;;;;;;;;;;;;25.85;54.98;99669.69;335070;29;2453;-73
2023/08/20 00:37:14;;;;;;;;;;;;;;;25.84;54.98;99673.38;333754;29;2301;-73
2023/08/20 00:37:25;;;;;;;;;;;;;;;25.84;54.74;99665.31;335750;29;873;-73
2023/08/20 00:37:35;;;;;;;;;;;;;;;25.84;54.86;99666.16;328386;29;4381;-73
2023/08/20 00:37:45;;;;;;;;;;;;;;;25.84;54.73;99671.53;329522;29;2607;-73
2023/08/20 00:37:56;;;;;;;;;;;;;;;25.85;55.03;99667.00;331680;29;1210;-73
2023/08/20 00:38:06;;;;;;;;;;;;;;;25.87;54.84;99670.38;333829;29;1930;-73
2023/08/20 00:38:16;;;;;;;;;;;;;;;25.88;54.82;99671.22;334059;29;1548;-73
2023/08/20 00:38:26;;;;;;;;;;;;;;;25.89;54.51;99679.09;331675;29;1222;-73
2023/08/20 00:38:36;;;;;;;;;;;;;;;25.91;54.90;99670.91;328233;30;816;-73
2023/08/20 00:38:47;;;;;;;;;;;;;;;25.91;54.60;99673.56;328336;29;2436;-73
2023/08/20 00:38:57;;;;;;;;;;;;;;;25.90;54.69;99667.38;325298;29;2688;-73
2023/08/20 00:39:07;;;;;;;;;;;;;;;25.90;54.72;99667.38;326078;30;1225;-73
2023/08/20 00:39:17;;;;;;;;;;;;;;;25.90;54.94;99669.22;326445;30;3351;-73
2023/08/20 00:39:28;;;;;;;;;;;;;;;25.89;54.97;99673.72;324780;30;3098;-73
2023/08/20 00:39:38;;;;;;;;;;;;;;;25.89;54.81;99678.25;322058;30;1367;-73
2023/08/20 00:39:49;;;;;;;;;;;;;;;25.86;55.10;99671.38;322439;30;3408;-73
2023/08/20 00:39:59;;;;;;;;;;;;;;;25.86;54.79;99668.69;321216;30;3201;-73
2023/08/20 00:40:10;;;;;;;;;;;;;;;25.85;54.76;99672.38;324021;30;1576;-73
2023/08/20 00:40:20;;;;;;;;;;;;;;;25.86;54.88;99666.00;322411;30;2268;-73
2023/08/20 00:40:30;;;;;;;;;;;;;;;25.86;54.89;99668.69;322700;30;2157;-73
2023/08/20 00:40:40;;;;;;;;;;;;;;;25.85;55.00;99667.00;320773;30;1189;-73
2023/08/20 00:40:51;;;;;;;;;;;;;;;25.87;54.98;99664.16;314664;30;2960;-73
2023/08/20 00:41:01;;;;;;;;;;;;;;;25.86;54.97;99668.69;315946;30;3611;-73
2023/08/20 00:41:11;;;;;;;;;;;;;;;25.86;54.91;99668.69;316211;31;1306;-73
2023/08/20 00:41:22;;;;;;;;;;;;;;;25.87;55.05;99670.38;316774;31;4174;-73
2023/08/20 00:41:32;;;;;;;;;;;;;;;25.87;54.79;99664.16;318416;30;4692;-73
2023/08/20 00:41:42;;;;;;;;;;;;;;;25.86;54.62;99666.00;318728;30;4038;-73
2023/08/20 00:41:52;;;;;;;;;;;;;;;25.87;54.68;99666.84;317598;31;1412;-73
2023/08/20 00:42:04;;;;;;;;;;;;;;;25.86;54.88;99668.69;317732;30;4769;-73
2023/08/20 00:42:14;;;;;;;;;;;;;;;25.85;54.84;99669.69;317073;31;4484;-73
2023/08/20 00:42:27;;;;;;;;;;;;;;;25.85;54.63;99667.00;313382;31;1445;-73
2023/08/20 00:42:38;;;;;;;;;;;;;;;25.81;54.70;99666.47;306310;32;1258;-73
2023/08/20 00:42:48;;;;;;;;;;;;;;;25.81;54.87;99668.31;307210;32;3403;-73
2023/08/20 00:42:58;;;;;;;;;;;;;;;25.81;54.75;99665.63;306834;32;4391;-73
2023/08/20 00:43:08;;;;;;;;;;;;;;;25.79;54.92;99664.97;308479;32;799;-73
2023/08/20 00:43:19;;;;;;;;;;;;;;;25.79;55.08;99670.31;307495;32;5395;-73
2023/08/20 00:43:29;;;;;;;;;;;;;;;25.78;55.04;99665.97;306170;32;5741;-73
2023/08/20 00:43:39;;;;;;;;;;;;;;;25.79;54.82;99664.97;305247;32;1332;-73
2023/08/20 00:43:49;;;;;;;;;;;;;;;25.79;55.02;99670.31;304793;32;6515;-73
2023/08/20 00:43:59;;;;;;;;;;;;;;;25.79;54.70;99662.28;305270;32;5924;-73
2023/08/20 00:44:10;;;;;;;;;;;;;;;25.78;54.65;99661.44;307366;32;871;-73
2023/08/20 00:44:20;;;;;;;;;;;;;;;25.77;54.77;99670.47;304468;32;5942;-73
2023/08/20 00:44:30;;;;;;;;;;;;;;;25.76;54.55;99667.94;305072;32;6127;-73
2023/08/20 00:44:41;;;;;;;;;;;;;;;25.73;54.83;99663.75;306272;32;856;-73
2023/08/20 00:44:52;;;;;;;;;;;;;;;25.71;54.55;99664.91;304900;32;4673;-73
2023/08/20 00:45:03;;;;;;;;;;;;;;;25.71;54.55;99667.59;305056;32;5083;-73
2023/08/20 00:45:14;;;;;;;;;;;;;;;25.72;54.51;99664.75;301608;32;6555;-73
2023/08/20 00:45:24;;;;;;;;;;;;;;;25.70;54.58;99663.22;301546;32;2442;-73
2023/08/20 00:45:34;;;;;;;;;;;;;;;25.71;54.45;99654.19;295659;32;7812;-74
2023/08/20 00:45:45;;;;;;;;;;;;;;;25.71;54.68;99664.91;294787;32;8187;-74
2023/08/20 00:45:55;;;;;;;;;;;;;;;25.72;54.38;99661.22;297202;33;5064;-74
2023/08/20 00:46:05;;;;;;;;;;;;;;;25.72;54.53;99661.22;297085;33;9191;-72
2023/08/20 00:46:15;;;;;;;;;;;;;;;25.72;54.32;99666.59;297637;32;9108;-73
2023/08/20 00:46:25;;;;;;;;;;;;;;;25.72;54.27;99662.06;300060;32;1304;-73
2023/08/20 00:46:36;;;;;;;;;;;;;;;25.73;54.17;99660.22;295698;33;8588;-73
2023/08/20 00:46:46;;;;;;;;;;;;;;;25.74;54.26;99659.22;296013;33;8525;-73
2023/08/20 00:46:56;;;;;;;;;;;;;;;25.74;54.41;99661.91;298087;33;1215;-73
2023/08/20 00:47:06;;;;;;;;;;;;;;;25.75;54.21;99661.75;296539;33;5927;-73
2023/08/20 00:49:20;;;;;;;;;;;;;;;25.73;54.16;99668.25;2492668;27;20345;-74
2023/08/20 00:49:30;;;;;;;;;;;;;;;25.71;54.29;99665.75;354492;27;885;-74
2023/08/20 00:49:40;;;;;;;;;;;;;;;25.71;53.85;99671.09;353910;27;1307;-74
2023/08/20 00:49:51;;;;;;;;;;;;;;;25.71;53.92;99668.44;351787;28;823;-74
2023/08/20 00:50:03;;;;;;;;;;;;;;;25.71;54.10;99664.91;351702;28;875;-74
2023/08/20 00:50:14;;;;;;;;;;;;;;;25.71;54.14;99664.91;351530;28;800;-74
2023/08/20 00:50:24;;;;;;;;;;;;;;;25.70;54.09;99663.22;351502;28;1260;-74
2023/08/20 00:50:34;;;;;;;;;;;;;;;25.70;54.08;99660.53;348781;28;1455;-74
2023/08/20 00:50:45;;;;;;;;;;;;;;;25.70;54.11;99663.22;349566;28;1178;-74
2023/08/20 00:50:55;;;;;;;;;;;;;;;25.69;54.04;99667.75;350233;28;888;-74
2023/08/20 00:51:05;;;;;;;;;;;;;;;25.67;54.17;99668.91;349233;28;1298;-74
2023/08/20 00:51:15;;;;;;;;;;;;;;;25.67;54.16;99674.25;347370;28;1515;-74
2023/08/20 00:51:25;;;;;;;;;;;;;;;25.68;54.08;99665.22;348784;28;1227;-74
2023/08/20 00:51:36;;;;;;;;;;;;;;;25.67;54.28;99667.06;348857;28;1203;-74
2023/08/20 00:51:48;;;;;;;;;;;;;;;25.68;54.03;99670.56;348472;28;1234;-74
2023/08/20 00:51:59;;;;;;;;;;;;;;;25.69;53.89;99666.91;347543;28;1294;-74
2023/08/20 00:52:09;;;;;;;;;;;;;;;25.69;54.12;99662.38;348810;28;859;-74
2023/08/20 00:52:19;;;;;;;;;;;;;;;25.70;54.04;99664.06;343510;28;1344;-74
2023/08/20 00:52:29;;;;;;;;;;;;;;;25.70;54.06;99665.91;346933;28;1366;-74
2023/08/20 00:52:40;;;;;;;;;;;;;;;25.69;53.90;99664.22;348828;28;934;-74
2023/08/20 00:52:50;;;;;;;;;;;;;;;25.70;53.95;99668.59;347504;28;1399;-74
2023/08/20 00:53:00;;;;;;;;;;;;;;;25.69;54.21;99666.91;345974;28;1319;-74
2023/08/20 00:53:10;;;;;;;;;;;;;;;25.70;54.11;99665.91;346140;28;957;-74
2023/08/20 00:53:21;;;;;;;;;;;;;;;25.70;54.11;99668.59;346176;28;915;-74
2023/08/20 00:53:31;;;;;;;;;;;;;;;25.70;54.17;99668.59;344683;28;888;-74
2023/08/20 00:53:41;;;;;;;;;;;;;;;25.69;54.19;99672.25;343329;28;1268;-74
2023/08/20 00:53:52;;;;;;;;;;;;;;;25.68;54.11;99668.75;343537;28;1251;-74
2023/08/20 00:54:02;;;;;;;;;;;;;;;25.70;54.22;99665.91;344526;28;868;-74
2023/08/20 00:54:12;;;;;;;;;;;;;;;25.71;54.16;99664.91;345045;28;1270;-74
2023/08/20 00:54:23;;;;;;;;;;;;;;;25.71;54.04;99671.09;344749;28;1215;-74
2023/08/20 00:54:33;;;;;;;;;;;;;;;25.71;53.96;99664.91;344690;28;1432;-74
2023/08/20 00:54:46;;;;;;;;;;;;;;;25.71;53.93;99665.75;343413;28;2798;-74
2023/08/20 00:54:56;;;;;;;;;;;;;;;25.71;54.02;99663.06;340845;28;4876;-74
2023/08/20 00:55:07;;;;;;;;;;;;;;;25.71;54.02;99667.59;340366;29;5071;-74
2023/08/20 00:55:17;;;;;;;;;;;;;;;25.71;54.08;99664.91;344373;28;1317;-74
2023/08/20 00:55:27;;;;;;;;;;;;;;;25.73;53.78;99668.25;343943;28;3101;-74
2023/08/20 00:55:38;;;;;;;;;;;;;;;25.70;54.18;99665.91;343468;28;860;-74
2023/08/20 00:55:48;;;;;;;;;;;;;;;25.69;54.10;99666.91;343219;28;1290;-74
2023/08/20 00:55:58;;;;;;;;;;;;;;;25.69;54.17;99661.53;344538;28;1293;-74
2023/08/20 00:56:08;;;;;;;;;;;;;;;25.69;54.28;99664.22;346014;28;1245;-74
2023/08/20 00:56:19;;;;;;;;;;;;;;;25.69;54.13;99669.59;340837;29;849;-74
2023/08/20 00:56:29;;;;;;;;;;;;;;;25.68;54.29;99666.06;339502;29;723;-74
2023/08/20 00:56:39;;;;;;;;;;;;;;;25.68;54.13;99660.69;340600;29;1308;-74
2023/08/20 00:56:49;;;;;;;;;;;;;;;25.68;54.14;99670.56;339489;29;1329;-74
2023/08/20 00:57:00;;;;;;;;;;;;;;;25.68;54.12;99670.56;340979;28;839;-74
2023/08/20 00:57:10;;;;;;;;;;;;;;;25.66;54.14;99661.84;342311;28;1203;-74
2023/08/20 00:57:20;;;;;;;;;;;;;;;25.65;54.10;99668.22;346279;28;821;-74
2023/08/20 00:57:30;;;;;;;;;;;;;;;25.65;54.07;99665.53;343030;28;1527;-74
2023/08/20 00:57:41;;;;;;;;;;;;;;;25.64;53.99;99663.84;339366;28;1462;-74
2023/08/20 00:57:51;;;;;;;;;;;;;;;25.64;53.96;99662.00;338135;29;1214;-74
2023/08/20 00:58:01;;;;;;;;;;;;;;;25.64;54.04;99664.69;335893;29;1597;-74
2023/08/20 00:58:11;;;;;;;;;;;;;;;25.64;54.03;99663.84;336997;29;1992;-74
2023/08/20 00:58:22;;;;;;;;;;;;;;;25.63;53.90;99665.66;339478;29;889;-74
2023/08/20 00:58:32;;;;;;;;;;;;;;;25.63;54.06;99667.50;339439;29;901;-75
2023/08/20 00:58:42;;;;;;;;;;;;;;;25.62;54.11;99665.81;335959;29;1203;-75
2023/08/20 00:58:53;;;;;;;;;;;;;;;25.62;54.18;99665.81;338273;29;834;-75
2023/08/20 00:59:03;;;;;;;;;;;;;;;25.62;54.18;99666.66;337944;29;1202;-75
2023/08/20 00:59:14;;;;;;;;;;;;;;;25.62;54.04;99661.28;336147;29;1426;-75
2023/08/20 00:59:24;;;;;;;;;;;;;;;25.63;54.17;99667.50;332704;29;2444;-74
2023/08/20 00:59:34;;;;;;;;;;;;;;;25.63;54.09;99662.97;335570;29;1207;-74
2023/08/20 00:59:45;;;;;;;;;;;;;;;25.63;54.00;99662.13;335846;29;1782;-75
2023/08/20 00:59:55;;;;;;;;;;;;;;;25.63;54.17;99662.13;334338;29;2157;-74
2023/08/20 01:00:10;;;;;;;;;;;;;;;25.62;54.12;99665.81;335269;29;1386;-75
2023/08/20 01:00:20;;;;;;;;;;;;;;;25.62;54.29;99665.81;331247;29;1532;-74
2023/08/20 01:00:31;;;;;;;;;;;;;;;25.63;54.16;99662.13;332733;29;1548;-74
2023/08/20 01:00:41;;;;;;;;;;;;;;;25.63;54.27;99667.50;334260;29;1301;-74
2023/08/20 01:00:52;;;;;;;;;;;;;;;25.64;54.25;99663.84;333039;29;1669;-74
2023/08/20 01:01:02;;;;;;;;;;;;;;;25.62;54.19;99666.66;330590;29;1164;-74
2023/08/20 01:01:12;;;;;;;;;;;;;;;25.63;54.01;99667.50;327628;29;1946;-74